Tiempo atmosférico en la estación meteorológica de Álora, Málaga (181 m.)



Fecha
DESCASC
Temp. máxima en grados centígrados (hora)
DESCASC
Temp. mínima en grados centígrados (hora)
DESCASC
Temp. media en grados centígrados
DESCASC
Racha de viento máxima en m/sg (hora)
DESCASC
Velocidad máxima media en intervalos de 10 minutos(hora)
DESCASC
Precipitaciones diarias en mm
DESCASC
Precipitaciones de 00:00 a 06:00 en mm
DESCASC
Precipitaciones de 06:00 a 12:00 en mm
DESCASC
Precipitaciones de 12:00 a 18:00 en mm
DESCASC
Precipitaciones de 18:00 a 24:00 en mm
DESCASC
06-12-2018 25.2 (14:00) 11.6 (02:10) 18.4 8.89 (08:30) 5.28 (08:30) 0 0 0 0 0
05-12-2018 23.6 (15:30) 10.2 (07:30) 16.9 3.89 (14:40) 2.78 (14:40) 0 0 0 0 0
04-12-2018 24.3 (15:00) 10 (06:30) 17.1 5.28 (13:20) 3.89 (16:20) 0 0 0 0 0
03-12-2018 25.6 (15:00) 12.5 (00:00) 19.1 7.22 (00:40) 4.17 (01:00) 0 0 0 0 0
02-12-2018 22.9 (14:30) 11.9 (00:00) 17.4 9.72 (11:50) 6.11 (10:30) 0 0 0 0 0
01-12-2018 20.4 (15:50) 8.3 (00:00) 14.3 8.89 (00:10) 5 (00:10) 0 0 0 0 0
30-11-2018 19 (15:00) 10.5 (00:00) 14.8 11.94 (12:40) 6.39 (12:20) 0 0 0 0 0
29-11-2018 22.5 (15:20) 6 (00:00) 14.3 6.67 (23:30) 4.17 (23:30) 0 0 0 0 0
28-11-2018 21.4 (15:30) 6.6 (00:00) 14 4.17 (14:20) 2.78 (16:20) 0 0 0 0 0
27-11-2018 20.9 (16:10) 9.1 (00:00) 15 6.67 (08:10) 3.89 (08:10) 0 0 0 0 0
26-11-2018 16.5 (13:30) 10.8 (08:00) 13.7 15.56 (04:00) 8.61 (04:00) 1.8 1.8 0 0 0
25-11-2018 17.8 (14:10) 9.8 (00:00) 13.8 4.44 (14:50) 3.06 (14:50) 0 0 0 0 0
24-11-2018 18.6 (15:40) 8.3 (00:00) 13.5 7.5 (14:40) 4.17 (01:30) 0 0 0 0 0
23-11-2018 16 (12:50) 10.4 (00:00) 13.2 6.67 (12:10) 3.33 (08:50) 13.8 13.4 0.4 0 0
22-11-2018 13.9 (14:30) 10.9 (00:00) 12.4 3.89 (10:50) 2.78 (10:50) 7.6 0 1.6 4.6 1.4
21-11-2018 14.3 (16:40) 11.4 (00:00) 12.8 4.17 (00:50) 2.78 (18:30) 4.8 1.2 0.6 3 0
20-11-2018 17 (16:00) 10.1 (00:00) 13.6 14.44 (13:30) 6.11 (13:30) 2.8 0.4 2.4 0 0
19-11-2018 17.5 (14:00) 11 (00:00) 14.3 11.94 (13:40) 7.22 (13:40) 2.4 2.2 0.2 0 0
18-11-2018 16.1 (02:30) 11.8 (12:20) 14 18.33 (08:30) 12.22 (08:20) 15.2 0 9 5.8 0.4
17-11-2018 18 (12:40) 14.9 (07:50) 16.4 11.11 (23:59) 7.78 (23:59) 0 0 0 0 0
16-11-2018 19.1 (14:40) 14.5 (03:00) 16.8 7.5 (14:50) 5 (14:20) 9.6 9.6 0 0 0

Gráficas

Temp. máximas Temp. mínimas Temp. medias Precipitaciones Rachas de viento máximas Velocidades máximas media en intervalos de 10 minutos

Datos horarios

Fecha y hora oficial Temperatura (ºC) Velocidad del viento (km/h) Dirección del viento Racha (km/h) Dirección de racha Precipitación (mm) Presión (hPa) Tendencia (hPa) Humedad (%)
2018-12-08 23:00:00 11.2 3 Este 7 Noroeste 0 -- -- 84
2018-12-08 22:00:00 11.8 2 Norte 5 Noroeste 0 -- -- 81
2018-12-08 21:00:00 12.9 3 Oeste 6 Norte 0 -- -- 78
2018-12-08 20:00:00 14 0 Calma 10 Noroeste 0 -- -- 75
2018-12-08 19:00:00 15.1 7 Noroeste 15 Norte 0 -- -- 70
2018-12-08 18:00:00 17.5 12 Norte 19 Oeste 0 -- -- 63
2018-12-08 17:00:00 20 11 Oeste 21 Oeste 0 -- -- 54
2018-12-08 16:00:00 18.7 8 Noroeste 30 Oeste 0 -- -- 58
2018-12-08 15:00:00 21.7 13 Noroeste 31 Noroeste 0 -- -- 48
2018-12-08 14:00:00 20.6 20 Noroeste 36 Noroeste 0 -- -- 51
2018-12-08 13:00:00 20.1 17 Noroeste 35 Noroeste 0 -- -- 54
2018-12-08 12:00:00 19.6 11 Noroeste 26 Oeste 0 -- -- 55
2018-12-08 11:00:00 18.3 12 Noroeste 30 Oeste 0 -- -- 60
2018-12-08 10:00:00 16.1 13 Noroeste 32 Norte 0 -- -- 65
2018-12-08 09:00:00 14.1 14 Noroeste 29 Noroeste 0 -- -- 70
2018-12-08 08:00:00 13.5 12 Noroeste 31 Oeste 0 -- -- 71
2018-12-08 07:00:00 14.2 14 Noroeste 33 Oeste 0 -- -- 70
2018-12-08 06:00:00 14.3 15 Noroeste 32 Oeste 0 -- -- 69
2018-12-08 05:00:00 14.7 20 Noroeste 42 Oeste 0 -- -- 69
2018-12-08 04:00:00 14.9 22 Noroeste 41 Noroeste 0 -- -- 67
2018-12-08 03:00:00 14.5 16 Noroeste 36 Oeste 0 -- -- 67
2018-12-08 02:00:00 14.8 14 Noroeste 31 Norte 0 -- -- 66
2018-12-08 01:00:00 14.2 11 Noroeste 23 Noroeste 0 -- -- 67
2018-12-08 00:00:00 14.9 12 Noroeste 29 Noroeste 0 -- -- 63
2018-12-07 23:00:00 15.6 13 Noroeste 22 Noroeste 0 -- -- 59
2018-12-07 22:00:00 16.7 13 Norte 25 Norte 0 -- -- 55
2018-12-07 21:00:00 16.9 14 Noroeste 26 Noroeste 0 -- -- 57
2018-12-07 20:00:00 17.8 11 Noroeste 19 Norte 0 -- -- 48
2018-12-07 19:00:00 18.9 6 Norte 18 Norte 0 -- -- 48
2018-12-07 18:00:00 20.4 6 Noroeste 15 Oeste 0 -- -- 47
2018-12-07 17:00:00 22.9 8 Noroeste 16 Oeste 0 -- -- 47
2018-12-07 16:00:00 21.5 5 Sudeste 19 Sur 0 -- -- 59
2018-12-07 15:00:00 20.8 10 Sudeste 15 Sur 0 -- -- 58
2018-12-07 14:00:00 20 9 Sudeste 14 Sudeste 0 -- -- 56
2018-12-07 13:00:00 19.2 9 Sudeste 13 Sudeste 0 -- -- 61
2018-12-07 12:00:00 17.9 4 Sur 7 Sudeste 0 -- -- 61
2018-12-07 11:00:00 14.9 2 Sudeste 5 Sur 0 -- -- 73
2018-12-07 10:00:00 11.3 0 Calma 3 Sur 0 -- -- 87
2018-12-07 09:00:00 8.8 0 Calma 8 Oeste 0 -- -- 90
2018-12-07 08:00:00 8.3 3 Norte 8 Norte 0 -- -- 91
2018-12-07 07:00:00 8.3 0 Calma 3 Este 0 -- -- 94
2018-12-07 06:00:00 8.5 2 Norte 6 Noroeste 0 -- -- 95
2018-12-07 05:00:00 8.6 0 Calma 2 Noroeste 0 -- -- 97
2018-12-07 04:00:00 8.6 0 Calma 4 Norte 0 -- -- 97
2018-12-07 03:00:00 8.9 0 Calma 8 Noroeste 0 -- -- 96
2018-12-07 02:00:00 10.7 3 Noroeste 6 Oeste 0 -- -- 96
2018-12-07 01:00:00 11.2 0 Calma 5 Nordeste 0 -- -- 96
2018-12-07 00:00:00 11.9 0 Calma 5 Oeste 0 -- -- 96
2018-12-06 23:00:00 12 0 Calma 12 Este 0 -- -- 96
2018-12-06 22:00:00 12.1 7 Sudeste 12 Sudeste 0 -- -- 95
2018-12-06 21:00:00 12.8 5 Este 10 Sudeste 0 -- -- 92
2018-12-06 20:00:00 14.7 6 Este 10 Sudeste 0 -- -- 82
2018-12-06 19:00:00 17.1 3 Este 8 Este 0 -- -- 74
2018-12-06 18:00:00 18.9 7 Este 11 Sudeste 0 -- -- 66
2018-12-06 17:00:00 22.2 8 Sudeste 11 Sudeste 0 -- -- 55
2018-12-06 16:00:00 23.4 8 Sudeste 13 Sudeste 0 -- -- 51
2018-12-06 15:00:00 23.5 10 Sudeste 15 Sudeste 0 -- -- 51
2018-12-06 14:00:00 25.2 6 Sur 10 Sudeste 0 -- -- 43
2018-12-06 13:00:00 23.1 3 Noroeste 9 Noroeste 0 -- -- 49
2018-12-06 12:00:00 21.3 5 Noroeste 18 Norte 0 -- -- 51
2018-12-06 11:00:00 18.9 9 Noroeste 19 Norte 0 -- -- 55
2018-12-06 10:00:00 15.8 10 Norte 27 Norte 0 -- -- 64
2018-12-06 09:00:00 14.4 13 Norte 32 Noroeste 0 -- -- 67
2018-12-06 08:00:00 13.2 12 Noroeste 24 Norte 0 -- -- 71
2018-12-06 07:00:00 13 9 Noroeste 17 Noroeste 0 -- -- 72
2018-12-06 06:00:00 13.2 6 Norte 17 Norte 0 -- -- 71
2018-12-06 05:00:00 13.4 4 Noroeste 13 Norte 0 -- -- 74
2018-12-06 04:00:00 12.5 4 Norte 14 Noroeste 0 -- -- 77
2018-12-06 03:00:00 12.1 6 Norte 8 Norte 0 -- -- 80
2018-12-06 02:00:00 11.8 3 Noroeste 8 Nordeste 0 -- -- 80
2018-12-06 01:00:00 11.8 0 Calma 3 Noroeste 0 -- -- 82
2018-12-06 00:00:00 12.3 0 Calma 4 Noroeste 0 -- -- 82
2018-12-05 23:00:00 12.8 2 Norte 6 Nordeste 0 -- -- 78
2018-12-05 22:00:00 13.5 4 Noroeste 6 Noroeste 0 -- -- 77
2018-12-05 21:00:00 14.1 4 Oeste 5 Norte 0 -- -- 77
2018-12-05 20:00:00 15.7 2 Sudoeste 10 Este 0 -- -- 71
2018-12-05 19:00:00 17.7 0 Calma 5 Sudeste 0 -- -- 66
2018-12-05 18:00:00 20.3 2 Sur 8 Sudeste 0 -- -- 58
2018-12-05 17:00:00 22.8 4 Sudeste 10 Sur 0 -- -- 50
2018-12-05 16:00:00 23.3 -- -- -- -- 0 -- -- 46
2018-12-05 15:00:00 23.4 9 Sur 14 Sudeste 0 -- -- 45
2018-12-05 14:00:00 22.3 9 Sudeste 13 Sur 0 -- -- 49
2018-12-05 13:00:00 21.4 6 Sudeste 10 Sudeste 0 -- -- 48
2018-12-05 12:00:00 19.3 5 Sudeste 9 Este 0 -- -- 59
2018-12-05 11:00:00 17.2 2 Sur 5 Sudeste 0 -- -- 67
2018-12-05 10:00:00 14 0 Calma 3 Sudeste 0 -- -- 78
2018-12-05 09:00:00 11.2 0 Calma 4 Noroeste 0 -- -- 83
2018-12-05 08:00:00 10.3 0 Calma 2 Noroeste 0 -- -- 84
2018-12-05 07:00:00 10.4 0 Calma 0 Calma 0 -- -- 83
2018-12-05 06:00:00 10.5 0 Calma 2 Oeste 0 -- -- 82
2018-12-05 05:00:00 10.4 0 Calma 2 Este 0 -- -- 83
2018-12-05 04:00:00 10.7 0 Calma 2 Sudoeste 0 -- -- 83
2018-12-05 03:00:00 11 2 Oeste 2 Oeste 0 -- -- 82
2018-12-05 02:00:00 11 0 Calma 2 Nordeste 0 -- -- 80
2018-12-05 01:00:00 11.6 2 Oeste 3 Noroeste 0 -- -- 80
2018-12-05 00:00:00 12 0 Calma 4 Oeste 0 -- -- 77
2018-12-04 23:00:00 12.4 0 Calma 4 Nordeste 0 -- -- 77
2018-12-04 22:00:00 13.4 0 Calma 10 Nordeste 0 -- -- 71
2018-12-04 21:00:00 15.1 3 Este 13 Este 0 -- -- 65
2018-12-04 20:00:00 16.3 6 Este 13 Sudeste 0 -- -- 62
2018-12-04 19:00:00 17.7 6 Sudeste 12 Sur 0 -- -- 56
2018-12-04 18:00:00 19.2 10 Sur 17 Sur 0 -- -- 51
2018-12-04 17:00:00 22.2 13 Sur 18 Sur 0 -- -- 47
2018-12-04 16:00:00 23.7 11 Sur 17 Sur 0 -- -- 46
2018-12-04 15:00:00 24.3 12 Sur 19 Sur 0 -- -- 43
2018-12-04 14:00:00 23.8 13 Sur 19 Sur 0 -- -- 45
2018-12-04 13:00:00 22.8 9 Sudeste 13 Sudeste 0 -- -- 51
2018-12-04 12:00:00 21 4 Sudeste 8 Sudeste 0 -- -- 57
2018-12-04 11:00:00 18.5 3 Sudeste 5 Sur 0 -- -- 68
2018-12-04 10:00:00 15 0 Calma 3 Este 0 -- -- 77
2018-12-04 09:00:00 11.6 0 Calma 4 Norte 0 -- -- 82
2018-12-04 08:00:00 10.4 3 Oeste 5 Noroeste 0 -- -- 81
2018-12-04 07:00:00 10 0 Calma 2 Oeste 0 -- -- 83
2018-12-04 06:00:00 10.3 0 Calma 2 Noroeste 0 -- -- 81
2018-12-04 05:00:00 10.5 0 Calma 5 Noroeste 0 -- -- 81
2018-12-04 04:00:00 11.2 0 Calma 3 Nordeste 0 -- -- 79
2018-12-04 03:00:00 12 0 Calma 6 Este 0 -- -- 75
2018-12-04 02:00:00 12.9 0 Calma 3 Sudoeste 0 -- -- 74
2018-12-04 01:00:00 14.3 3 Oeste 5 Noroeste 0 -- -- 70
2018-12-04 00:00:00 15.4 3 Norte 9 Noroeste 0 -- -- 66
2018-12-03 23:00:00 16.4 5 Noroeste 13 Norte 0 -- -- 68
2018-12-03 22:00:00 17.4 5 Noroeste 24 Norte 0 -- -- 64
2018-12-03 21:00:00 18.4 13 Noroeste 23 Norte 0 -- -- 61
2018-12-03 20:00:00 18.9 11 Noroeste 23 Noroeste 0 -- -- 61
2018-12-03 19:00:00 20 13 Norte 18 Norte 0 -- -- 56
2018-12-03 18:00:00 21.9 9 Noroeste 17 Noroeste 0 -- -- 49
2018-12-03 17:00:00 24.1 12 Noroeste 24 Noroeste 0 -- -- 44
2018-12-03 16:00:00 25 9 Noroeste 18 Noroeste 0 -- -- 41
2018-12-03 15:00:00 25.6 6 Noroeste 17 Noroeste 0 -- -- 43
2018-12-03 14:00:00 24.4 8 Noroeste 18 Noroeste 0 -- -- 47
2018-12-03 13:00:00 23.1 7 Noroeste 18 Noroeste 0 -- -- 49
2018-12-03 12:00:00 21.4 5 Noroeste 17 Noroeste 0 -- -- 52
2018-12-03 11:00:00 18.5 2 Sur 5 Sur 0 -- -- 60
2018-12-03 10:00:00 15.4 0 Calma 6 Noroeste 0 -- -- 67
2018-12-03 09:00:00 13.3 2 Noroeste 10 Noroeste 0 -- -- 70
2018-12-03 08:00:00 13.1 5 Norte 19 Noroeste 0 -- -- 66
2018-12-03 07:00:00 14 8 Norte 19 Norte 0 -- -- 62
2018-12-03 06:00:00 13.8 10 Noroeste 21 Norte 0 -- -- 62
2018-12-03 05:00:00 13.3 4 Noroeste 16 Noroeste 0 -- -- 64
2018-12-03 04:00:00 13.6 6 Norte 17 Norte 0 -- -- 63
2018-12-03 03:00:00 14.2 5 Norte 19 Norte 0 -- -- 62
2018-12-03 02:00:00 14.2 9 Norte 24 Norte 0 -- -- 61
2018-12-03 01:00:00 14.6 15 Norte 26 Noroeste 0 -- -- 59
2018-12-03 00:00:00 15.7 15 Noroeste 28 Noroeste 0 -- -- 49
2018-12-02 23:00:00 15.9 16 Noroeste 28 Noroeste 0 -- -- 48
2018-12-02 22:00:00 16.2 15 Noroeste 27 Oeste 0 -- -- 44
2018-12-02 21:00:00 16.2 16 Noroeste 26 Norte 0 -- -- 50
2018-12-02 20:00:00 16.8 13 Norte 23 Noroeste 0 -- -- 50
2018-12-02 19:00:00 17.6 11 Norte 24 Noroeste 0 -- -- 49
2018-12-02 18:00:00 18.5 9 Noroeste 21 Noroeste 0 -- -- 49
2018-12-02 17:00:00 20.2 9 Noroeste 24 Noroeste 0 -- -- 45
2018-12-02 16:00:00 21.3 11 Noroeste 27 Oeste 0 -- -- 42
2018-12-02 15:00:00 22.5 14 Noroeste 29 Oeste 0 -- -- 36
2018-12-02 14:00:00 22.2 13 Noroeste 28 Noroeste 0 -- -- 34
2018-12-02 13:00:00 20.2 16 Noroeste 33 Noroeste 0 -- -- 33
2018-12-02 12:00:00 17.7 21 Norte 35 Norte 0 -- -- 43
2018-12-02 11:00:00 15.2 20 Norte 33 Noroeste 0 -- -- 52
2018-12-02 10:00:00 13.2 20 Norte 35 Norte 0 -- -- 58
2018-12-02 09:00:00 12.5 18 Norte 33 Norte 0 -- -- 59
2018-12-02 08:00:00 12.2 9 Norte 23 Noroeste 0 -- -- 57
2018-12-02 07:00:00 12.1 8 Norte 25 Noroeste 0 -- -- 57
2018-12-02 06:00:00 12.3 9 Norte 27 Noroeste 0 -- -- 55
2018-12-02 05:00:00 12.6 15 Noroeste 28 Noroeste 0 -- -- 54
2018-12-02 04:00:00 13.1 13 Noroeste 32 Noroeste 0 -- -- 51
2018-12-02 03:00:00 13.2 18 Noroeste 33 Noroeste 0 -- -- 52
2018-12-02 02:00:00 13.1 12 Noroeste 29 Noroeste 0 -- -- 52
2018-12-02 01:00:00 13 14 Noroeste 29 Oeste 0 -- -- 56
2018-12-02 00:00:00 12.3 12 Noroeste 24 Oeste 0 -- -- 62
2018-12-01 23:00:00 12.7 12 Noroeste 19 Norte 0 -- -- 62
2018-12-01 22:00:00 13.2 11 Noroeste 19 Noroeste 0 -- -- 59
2018-12-01 21:00:00 13.2 5 Norte 17 Noroeste 0 -- -- 60
2018-12-01 20:00:00 13.7 9 Noroeste 24 Noroeste 0 -- -- 58
2018-12-01 19:00:00 14.6 13 Noroeste 27 Oeste 0 -- -- 53
2018-12-01 18:00:00 16 7 Noroeste 17 Oeste 0 -- -- 51
2018-12-01 17:00:00 19.1 7 Noroeste 18 Noroeste 0 -- -- 44
2018-12-01 16:00:00 20.4 11 Noroeste 22 Noroeste 0 -- -- 40
2018-12-01 15:00:00 19.7 9 Noroeste 28 Noroeste 0 -- -- 41
2018-12-01 14:00:00 19.7 12 Oeste 22 Oeste 0 -- -- 41
2018-12-01 13:00:00 18.8 8 Noroeste 17 Noroeste 0 -- -- 48
2018-12-01 12:00:00 16.3 6 Noroeste 10 Oeste 0 -- -- 55
2018-12-01 11:00:00 14.7 2 Noroeste 6 Noroeste 0 -- -- 63
2018-12-01 10:00:00 11.7 3 Norte 14 Norte 0 -- -- 73
2018-12-01 09:00:00 9.1 2 Noroeste 13 Norte 0 -- -- 80
2018-12-01 08:00:00 8.5 5 Noroeste 17 Norte 0 -- -- 81
2018-12-01 07:00:00 8.8 11 Norte 23 Norte 0 -- -- 80
2018-12-01 06:00:00 9.3 9 Norte 24 Norte 0 -- -- 79
2018-12-01 05:00:00 9.5 13 Norte 21 Norte 0 -- -- 78
2018-12-01 04:00:00 10.1 10 Norte 23 Noroeste 0 -- -- 75
2018-12-01 03:00:00 11 12 Noroeste 23 Noroeste 0 -- -- 72
2018-12-01 02:00:00 11.2 11 Noroeste 21 Noroeste 0 -- -- 71
2018-12-01 01:00:00 11.8 13 Noroeste 32 Noroeste 0 -- -- 67
2018-12-01 00:00:00 11.1 14 Noroeste 28 Noroeste 0 -- -- 72
2018-11-30 23:00:00 10.7 9 Noroeste 17 Norte 0 -- -- 73
2018-11-30 22:00:00 11.4 7 Norte 17 Noroeste 0 -- -- 71
2018-11-30 21:00:00 13 8 Noroeste 20 Noroeste 0 -- -- 65
2018-11-30 20:00:00 13.4 7 Noroeste 15 Oeste 0 -- -- 63
2018-11-30 19:00:00 14.1 8 Noroeste 28 Oeste 0 -- -- 61
2018-11-30 18:00:00 15.2 12 Noroeste 32 Noroeste 0 -- -- 54
2018-11-30 17:00:00 17.3 12 Noroeste 36 Noroeste 0 -- -- 56
2018-11-30 16:00:00 18.6 12 Noroeste 37 Oeste 0 -- -- 54
2018-11-30 15:00:00 19 14 Noroeste 36 Noroeste 0 -- -- 55
2018-11-30 14:00:00 18.2 19 Noroeste 37 Noroeste 0 -- -- 56
2018-11-30 13:00:00 18.2 16 Noroeste 43 Oeste 0 -- -- 62
2018-11-30 12:00:00 18.3 15 Noroeste 34 Oeste 0 -- -- 65
2018-11-30 11:00:00 17.9 9 Noroeste 26 Noroeste 0 -- -- 73
2018-11-30 10:00:00 16.4 16 Noroeste 30 Noroeste 0 -- -- 81
2018-11-30 09:00:00 14.8 6 Noroeste 24 Noroeste 0 -- -- 87
2018-11-30 08:00:00 14.3 13 Noroeste 23 Noroeste 0 -- -- 86
2018-11-30 07:00:00 13.6 10 Noroeste 17 Noroeste 0 -- -- 85
2018-11-30 06:00:00 13.1 8 Norte 13 Norte 0 -- -- 82
2018-11-30 05:00:00 13 5 Norte 11 Nordeste 0 -- -- 81
2018-11-30 04:00:00 13.1 3 Norte 9 Noroeste 0 -- -- 81
2018-11-30 03:00:00 12.9 5 Noroeste 15 Noroeste 0 -- -- 82
2018-11-30 02:00:00 12.5 5 Norte 21 Oeste 0 -- -- 84
2018-11-30 01:00:00 13.1 9 Noroeste 19 Noroeste 0 -- -- 81
2018-11-30 00:00:00 13.6 10 Norte 24 Noroeste 0 -- -- 80
2018-11-29 23:00:00 13.8 10 Noroeste 21 Noroeste 0 -- -- 81
2018-11-29 22:00:00 14.2 9 Noroeste 16 Norte 0 -- -- 80
2018-11-29 21:00:00 14.5 10 Noroeste 15 Noroeste 0 -- -- 79
2018-11-29 20:00:00 14.4 6 Nordeste 13 Noroeste 0 -- -- 72
2018-11-29 19:00:00 15.8 2 Este 12 Sur 0 -- -- 66
2018-11-29 18:00:00 17.1 5 Sur 13 Sudeste 0 -- -- 61
2018-11-29 17:00:00 19.4 5 Este 13 Sudeste 0 -- -- 56
2018-11-29 16:00:00 21.5 6 Sudeste 9 Sudeste 0 -- -- 46
2018-11-29 15:00:00 22.4 3 Sudoeste 9 Sudoeste 0 -- -- 40
2018-11-29 14:00:00 21 4 Sur 8 Sur 0 -- -- 48
2018-11-29 13:00:00 18 3 Sudeste 6 Sudeste 0 -- -- 50
2018-11-29 12:00:00 16.4 3 Sur 6 Sur 0 -- -- 63
2018-11-29 11:00:00 14 3 Sudeste 8 Noroeste 0 -- -- 67
2018-11-29 10:00:00 10.3 4 Noroeste 10 Norte 0 -- -- 75
2018-11-29 09:00:00 7.5 0 Calma 10 Norte 0 -- -- 77
2018-11-29 08:00:00 6.7 0 Calma 6 Noroeste 0 -- -- 80
2018-11-29 07:00:00 6.8 4 Noroeste 8 Noroeste 0 -- -- 81
2018-11-29 06:00:00 6.3 3 Norte 6 Noroeste 0 -- -- 85
2018-11-29 05:00:00 6.1 3 Norte 9 Noroeste 0 -- -- 85
2018-11-29 04:00:00 6.7 2 Este 8 Noroeste 0 -- -- 82
2018-11-29 03:00:00 6.8 2 Noroeste 4 Oeste 0 -- -- 84
2018-11-29 02:00:00 7.6 4 Norte 8 Noroeste 0 -- -- 80
2018-11-29 01:00:00 8 4 Noroeste 6 Norte 0 -- -- 80
2018-11-29 00:00:00 8.6 0 Calma 5 Noroeste 0 -- -- 77
2018-11-28 23:00:00 9.4 0 Calma 8 Noroeste 0 -- -- 79
2018-11-28 22:00:00 9.9 0 Calma 3 Sur 0 -- -- 81
2018-11-28 21:00:00 11.1 0 Calma 4 Nordeste 0 -- -- 77
2018-11-28 14:00:00 -- -- -- -- -- -- -- -- --
2018-11-28 13:00:00 -- -- -- -- -- -- -- -- --
2018-11-28 12:00:00 -- -- -- -- -- -- -- -- --
2018-11-28 11:00:00 -- -- -- -- -- -- -- -- --
2018-11-28 10:00:00 9.7 0 Calma 4 Nordeste 0 -- -- 82
2018-11-28 09:00:00 7.5 2 Este 4 Este 0 -- -- 83
2018-11-28 08:00:00 6.8 0 Calma 5 Norte 0 -- -- 85
2018-11-28 07:00:00 6.6 0 Calma 9 Norte 0 -- -- 87
2018-11-28 06:00:00 7 3 Noroeste 8 Noroeste 0 -- -- 87
2018-11-28 05:00:00 6.9 0 Calma 3 Sudoeste 0 -- -- 88
2018-11-28 04:00:00 7.3 0 Calma 5 Noroeste 0 -- -- 88
2018-11-28 03:00:00 7.7 0 Calma 3 Nordeste 0 -- -- 86
2018-11-28 02:00:00 8.2 0 Calma 5 Noroeste 0 -- -- 85
2018-11-28 01:00:00 8.6 0 Calma 5 Norte 0 -- -- 83
2018-11-28 00:00:00 9.1 2 Nordeste 6 Norte 0 -- -- 82
2018-11-27 23:00:00 10 0 Calma 6 Norte 0 -- -- 80
2018-11-27 22:00:00 10.6 3 Este 7 Noroeste 0 -- -- 78
2018-11-27 21:00:00 11.7 3 Norte 10 Noroeste 0 -- -- 75
2018-11-27 20:00:00 12.4 2 Este 4 Este 0 -- -- 72
2018-11-27 19:00:00 14.5 0 Calma 5 Noroeste 0 -- -- 65
2018-11-27 18:00:00 17.3 2 Noroeste 6 Oeste 0 -- -- 51
2018-11-27 17:00:00 20.4 4 Sudoeste 8 Sudoeste 0 -- -- 46
2018-11-27 16:00:00 20.7 -- -- -- -- 0 -- -- 43
2018-11-27 15:00:00 19.9 2 Nordeste 9 Sudeste 0 -- -- 45
2018-11-27 14:00:00 18.8 4 Sudeste 9 Este 0 -- -- 49
2018-11-27 13:00:00 17.7 4 Sudoeste 8 Sur 0 -- -- 51
2018-11-27 12:00:00 15.5 2 Nordeste 5 Nordeste 0 -- -- 63
2018-11-27 11:00:00 13.6 2 Nordeste 12 Noroeste 0 -- -- 73
2018-11-27 10:00:00 11.6 4 Noroeste 17 Noroeste 0 -- -- 75
2018-11-27 09:00:00 9.2 12 Norte 24 Noroeste 0 -- -- 82
2018-11-27 08:00:00 9.5 10 Norte 21 Noroeste 0 -- -- 80
2018-11-27 07:00:00 9.6 11 Noroeste 22 Noroeste 0 -- -- 79
2018-11-27 06:00:00 9.7 13 Norte 22 Noroeste 0 -- -- 79
2018-11-27 05:00:00 9.8 11 Noroeste 21 Norte 0 -- -- 80
2018-11-27 04:00:00 9.8 11 Norte 18 Noroeste 0 -- -- 80
2018-11-27 03:00:00 9.5 11 Norte 17 Norte 0 -- -- 82
2018-11-27 02:00:00 10.2 6 Noroeste 13 Norte 0 -- -- 79
2018-11-27 01:00:00 10.7 10 Noroeste 16 Norte 0 -- -- 77
2018-11-27 00:00:00 12.1 9 Norte 20 Nordeste 0 -- -- 72
2018-11-26 23:00:00 12.5 8 Noroeste 27 Oeste 0 -- -- 70
2018-11-26 22:00:00 12.9 18 Noroeste 41 Oeste 0 -- -- 69
2018-11-26 21:00:00 12.9 24 Noroeste 41 Noroeste 0 -- -- 69
2018-11-26 20:00:00 13 21 Noroeste 40 Noroeste 0 -- -- 69
2018-11-26 19:00:00 13.5 20 Noroeste 39 Oeste 0 -- -- 67
2018-11-26 18:00:00 14.1 17 Noroeste 45 Noroeste 0 -- -- 64
2018-11-26 17:00:00 15.6 17 Noroeste 41 Oeste 0 -- -- 59
2018-11-26 16:00:00 14.5 19 Noroeste 43 Oeste 0 -- -- 60
2018-11-26 15:00:00 16 18 Noroeste 48 Noroeste 0 -- -- 55
2018-11-26 14:00:00 16.4 19 Noroeste 44 Oeste 0 -- -- 53
2018-11-26 13:00:00 16.1 16 Noroeste 48 Noroeste 0 -- -- 56
2018-11-26 12:00:00 14.8 20 Noroeste 49 Oeste 0 -- -- 57
2018-11-26 11:00:00 14.4 14 Noroeste 47 Noroeste 0 -- -- 60
2018-11-26 10:00:00 13.1 20 Noroeste 42 Noroeste 0 -- -- 64
2018-11-26 09:00:00 11.4 15 Noroeste 33 Oeste 0 -- -- 70
2018-11-26 08:00:00 10.8 13 Noroeste 35 Oeste 0 -- -- 72
2018-11-26 07:00:00 11.3 9 Noroeste 28 Noroeste 0 -- -- 74
2018-11-26 06:00:00 11.8 13 Noroeste 48 Noroeste 0 -- -- 70
2018-11-26 05:00:00 12.5 19 Noroeste 53 Oeste 0 -- -- 70
2018-11-26 04:00:00 14.1 31 Noroeste 56 Noroeste 0.2 -- -- 72
2018-11-26 03:00:00 14.7 16 Noroeste 46 Oeste 0 -- -- 81
2018-11-26 02:00:00 14.1 5 Norte 13 Norte 1.4 -- -- 94
2018-11-26 01:00:00 14.3 3 Oeste 9 Oeste 0.2 -- -- 91
2018-11-26 00:00:00 14.7 2 Oeste 7 Nordeste 0 -- -- 88
2018-11-25 23:00:00 15.1 4 Sur 8 Sudeste 0 -- -- 87
2018-11-25 22:00:00 14.9 5 Este 8 Sudeste 0 -- -- 88
2018-11-25 21:00:00 15 3 Sudeste 9 Norte 0 -- -- 89
2018-11-25 20:00:00 15.3 3 Nordeste 11 Oeste 0 -- -- 88
2018-11-25 19:00:00 15.7 4 Norte 8 Nordeste 0 -- -- 88
2018-11-25 18:00:00 16.3 5 Este 7 Sudeste 0 -- -- 84
2018-11-25 17:00:00 16.6 8 Oeste 12 Oeste 0 -- -- 82
2018-11-25 16:00:00 16.7 6 Este 16 Sudoeste 0 -- -- 80
2018-11-25 15:00:00 17.3 10 Sur 16 Sudeste 0 -- -- 75
2018-11-25 14:00:00 17.7 8 Sudeste 15 Sur 0 -- -- 73
2018-11-25 13:00:00 16.8 3 Este 14 Sudeste 0 -- -- 76
2018-11-25 12:00:00 15.3 3 Sudeste 9 Sudoeste 0 -- -- 80
2018-11-25 11:00:00 14.3 5 Oeste 9 Sudoeste 0 -- -- 86
2018-11-25 10:00:00 13.4 0 Calma 6 Noroeste 0 -- -- 86
2018-11-25 09:00:00 13 0 Calma 6 Norte 0 -- -- 86
2018-11-25 08:00:00 12.5 2 Norte 6 Este 0 -- -- 83
2018-11-25 07:00:00 11.2 2 Sudeste 9 Sudeste 0 -- -- 85
2018-11-25 06:00:00 10.5 3 Sudoeste 10 Norte 0 -- -- 87
2018-11-25 05:00:00 10.4 0 Calma 8 Norte 0 -- -- 84
2018-11-25 04:00:00 9.8 5 Oeste 8 Oeste 0 -- -- 88
2018-11-25 03:00:00 10.1 8 Noroeste 10 Norte 0 -- -- 88
2018-11-25 02:00:00 10.2 5 Noroeste 9 Norte 0 -- -- 88
2018-11-25 01:00:00 9.9 6 Oeste 10 Oeste 0 -- -- 89
2018-11-25 00:00:00 10.7 0 Calma 9 Oeste 0 -- -- 85
2018-11-24 23:00:00 11.2 0 Calma 6 Norte 0 -- -- 83
2018-11-24 22:00:00 12 3 Noroeste 5 Noroeste 0 -- -- 79
2018-11-24 21:00:00 12.7 2 Este 6 Nordeste 0 -- -- 76
2018-11-24 20:00:00 12.8 0 Calma 13 Noroeste 0 -- -- 76
2018-11-24 19:00:00 13.5 7 Noroeste 14 Noroeste 0 -- -- 70
2018-11-24 18:00:00 15 10 Noroeste 15 Oeste 0 -- -- 61
2018-11-24 17:00:00 16 5 Noroeste 18 Oeste 0 -- -- 60
2018-11-24 16:00:00 17.4 10 Noroeste 25 Noroeste 0 -- -- 52
2018-11-24 15:00:00 17.7 12 Noroeste 27 Oeste 0 -- -- 52
2018-11-24 14:00:00 18.3 5 Noroeste 20 Noroeste 0 -- -- 54
2018-11-24 13:00:00 17.9 7 Noroeste 19 Noroeste 0 -- -- 55
2018-11-24 12:00:00 16.4 6 Noroeste 15 Oeste 0 -- -- 58
2018-11-24 11:00:00 14.1 5 Norte 10 Norte 0 -- -- 73
2018-11-24 10:00:00 11.7 3 Norte 9 Noroeste 0 -- -- 82
2018-11-24 09:00:00 9 3 Nordeste 17 Norte 0 -- -- 90
2018-11-24 08:00:00 8.4 10 Norte 18 Norte 0 -- -- 89
2018-11-24 07:00:00 8.8 10 Noroeste 19 Norte 0 -- -- 88
2018-11-24 06:00:00 9 10 Noroeste 18 Noroeste 0 -- -- 88
2018-11-24 05:00:00 9.2 9 Noroeste 20 Norte 0 -- -- 88
2018-11-24 04:00:00 9.5 -- -- -- -- 0 -- -- 87
2018-11-24 03:00:00 9.7 10 Noroeste 20 Noroeste 0 -- -- 85
2018-11-24 02:00:00 10.1 12 Noroeste 23 Noroeste 0 -- -- 84
2018-11-24 01:00:00 10.3 13 Noroeste 21 Norte 0 -- -- 84
2018-11-24 00:00:00 10.4 11 Noroeste 19 Norte 0 -- -- 83
2018-11-23 23:00:00 10.7 9 Noroeste 17 Noroeste 0 -- -- 82
2018-11-23 22:00:00 11.2 8 Norte 19 Noroeste 0 -- -- 79
2018-11-23 21:00:00 11.6 7 Norte 15 Noroeste 0 -- -- 79
2018-11-23 20:00:00 12.1 4 Norte 10 Noroeste 0 -- -- 76
2018-11-23 19:00:00 12.9 6 Norte 16 Noroeste 0 -- -- 74
2018-11-23 18:00:00 14.5 9 Noroeste 17 Norte 0 -- -- 69
2018-11-23 17:00:00 15 6 Noroeste 16 Norte 0 -- -- 70
2018-11-23 16:00:00 15.6 8 Noroeste 17 Norte 0 -- -- 68
2018-11-23 15:00:00 15.8 5 Noroeste 17 Norte 0 -- -- 70
2018-11-23 14:00:00 15.1 9 Noroeste 19 Noroeste 0 -- -- 71
2018-11-23 13:00:00 15.9 10 Noroeste 24 Oeste 0 -- -- 70
2018-11-23 12:00:00 15.1 9 Noroeste 21 Noroeste 0 -- -- 76
2018-11-23 11:00:00 14.5 9 Noroeste 22 Oeste 0 -- -- 81
2018-11-23 10:00:00 12.1 8 Noroeste 22 Noroeste 0 -- -- 90
2018-11-23 09:00:00 11.4 9 Noroeste 22 Noroeste 0 -- -- 94
2018-11-23 08:00:00 11.6 9 Noroeste 20 Oeste 0 -- -- 96
2018-11-23 07:00:00 12.2 9 Norte 17 Noroeste 0.4 -- -- 97
2018-11-23 06:00:00 12.4 5 Noroeste 15 Norte 1.4 -- -- 97
2018-11-23 05:00:00 12.7 3 Noroeste 10 Noroeste 4 -- -- 97
2018-11-23 04:00:00 13 9 Oeste 14 Oeste 6 -- -- 96
2018-11-23 03:00:00 13 4 Oeste 9 Oeste 1.6 -- -- 96
2018-11-23 02:00:00 12.4 0 Calma 8 Nordeste 0.4 -- -- 97
2018-11-23 01:00:00 12.2 2 Sudeste 9 Sudoeste 0 -- -- 97
2018-11-23 00:00:00 12.2 3 Sudoeste 9 Sudoeste 0 -- -- 97
2018-11-22 23:00:00 12.4 2 Este 5 Este 0 -- -- 97
2018-11-22 22:00:00 12.4 2 Este 6 Nordeste 0 -- -- 97
2018-11-22 21:00:00 12.3 2 Este 7 Este 0.4 -- -- 97
2018-11-22 20:00:00 12.4 3 Sur 8 Nordeste 0 -- -- 96
2018-11-22 19:00:00 12.5 2 Sur 10 Sur 1 -- -- 96
2018-11-22 18:00:00 13.1 5 Sudeste 8 Sur 0.2 -- -- 96
2018-11-22 17:00:00 13.3 0 Calma 6 Este 1.4 -- -- 95
2018-11-22 16:00:00 13.4 4 Sudeste 8 Sur 2.2 -- -- 94
2018-11-22 15:00:00 13.8 0 Calma 5 Sur 0.8 -- -- 93
2018-11-22 14:00:00 13.7 2 Sudeste 5 Sudeste 0 -- -- 93
2018-11-22 13:00:00 13.2 0 Calma 6 Oeste 0 -- -- 96
2018-11-22 12:00:00 12.6 2 Sudeste 9 Sudeste 0 -- -- 97
2018-11-22 11:00:00 12.2 8 Sudeste 14 Sudeste 0 -- -- 97
2018-11-22 10:00:00 11.8 0 Calma 4 Nordeste 0.4 -- -- 97
2018-11-22 09:00:00 11.2 2 Oeste 8 Norte 0.6 -- -- 97
2018-11-22 08:00:00 11 0 Calma 4 Norte 0.4 -- -- 96
2018-11-22 07:00:00 11.1 0 Calma 5 Norte 0.2 -- -- 96
2018-11-22 06:00:00 10.9 2 Oeste 6 Oeste 0 -- -- 96
2018-11-22 05:00:00 10.9 0 Calma 6 Norte 0 -- -- 96
2018-11-22 04:00:00 10.9 0 Calma 5 Noroeste 0 -- -- 96
2018-11-22 03:00:00 11 3 Norte 6 Norte 0 -- -- 96
2018-11-22 02:00:00 11.1 0 Calma 9 Norte 0 -- -- 96
2018-11-22 01:00:00 11.5 0 Calma 4 Oeste 0 -- -- 96
2018-11-22 00:00:00 11.7 2 Nordeste 5 Norte 0 -- -- 95
2018-11-21 23:00:00 11.9 4 Norte 9 Este 0 -- -- 95
2018-11-21 22:00:00 12.4 2 Noroeste 4 Nordeste 0 -- -- 95
2018-11-21 21:00:00 12.5 0 Calma 5 Sudoeste 0 -- -- 95
2018-11-21 20:00:00 12.7 0 Calma 8 Sudeste 0 -- -- 95
2018-11-21 19:00:00 13.3 8 Sudeste 13 Sudeste 0 -- -- 94
2018-11-21 18:00:00 14.1 6 Sudeste 9 Sudeste 0 -- -- 91
2018-11-21 17:00:00 14.3 5 Este 12 Nordeste 0 -- -- 88
2018-11-21 16:00:00 14 6 Norte 12 Oeste 0 -- -- 91
2018-11-21 15:00:00 14.2 6 Noroeste 12 Noroeste 1.6 -- -- 94
2018-11-21 14:00:00 14.1 2 Noroeste 6 Norte 1.2 -- -- 94
2018-11-21 13:00:00 13.6 0 Calma 6 Oeste 0.2 -- -- 93
2018-11-21 12:00:00 13.2 4 Noroeste 8 Oeste 0.2 -- -- 94
2018-11-21 11:00:00 12.4 0 Calma 12 Oeste 0 -- -- 95
2018-11-21 10:00:00 12.1 2 Noroeste 6 Nordeste 0 -- -- 96
2018-11-21 09:00:00 11.6 0 Calma 4 Norte 0.4 -- -- 95
2018-11-21 08:00:00 11.5 0 Calma 4 Este 0 -- -- 95
2018-11-21 07:00:00 11.5 2 Oeste 5 Oeste 0 -- -- 94
2018-11-21 06:00:00 11.6 4 Nordeste 8 Nordeste 1.2 -- -- 93
2018-11-21 05:00:00 11.7 4 Norte 10 Noroeste 0 -- -- 91
2018-11-21 04:00:00 11.7 2 Este 10 Noroeste 0 -- -- 90
2018-11-21 03:00:00 12.6 5 Nordeste 10 Oeste 0 -- -- 86
2018-11-21 02:00:00 12.4 5 Noroeste 15 Norte 0 -- -- 87
2018-11-21 01:00:00 12.4 4 Noroeste 15 Norte 0 -- -- 83
2018-11-21 00:00:00 13 6 Oeste 10 Oeste 0 -- -- 78
2018-11-20 23:00:00 13 4 Nordeste 10 Sudoeste 0 -- -- 77
2018-11-20 22:00:00 13.1 4 Norte 12 Oeste 0 -- -- 76
2018-11-20 21:00:00 13.4 6 Nordeste 15 Norte 0 -- -- 76
2018-11-20 20:00:00 14.1 5 Norte 10 Noroeste 0 -- -- 74
2018-11-20 19:00:00 14.9 4 Noroeste 17 Sudoeste 0 -- -- 68
2018-11-20 18:00:00 15.4 3 Oeste 21 Oeste 0 -- -- 67
2018-11-20 17:00:00 16.9 10 Oeste 42 Oeste 0 -- -- 58
2018-11-20 16:00:00 17 12 Oeste 31 Oeste 0 -- -- 59
2018-11-20 15:00:00 16 12 Oeste 41 Noroeste 0 -- -- 58
2018-11-20 14:00:00 16.8 21 Oeste 52 Oeste 0 -- -- 62
2018-11-20 13:00:00 14.4 19 Oeste 45 Oeste 0 -- -- 75
2018-11-20 12:00:00 14.7 6 Norte 10 Noroeste 0.2 -- -- 89
2018-11-20 11:00:00 14.1 3 Oeste 8 Nordeste 0.2 -- -- 92
2018-11-20 10:00:00 13.1 2 Nordeste 6 Este 0 -- -- 93
2018-11-20 09:00:00 12.4 6 Sudeste 16 Sudeste 0.2 -- -- 93
2018-11-20 08:00:00 11.6 5 Sudeste 11 Este 1 -- -- 93
2018-11-20 07:00:00 11.5 6 Sudeste 13 Sudeste 0.8 -- -- 92
2018-11-20 06:00:00 10.4 3 Noroeste 14 Sudoeste 0.4 -- -- 91
2018-11-20 05:00:00 10.3 0 Calma 5 Norte 0 -- -- 90
2018-11-20 04:00:00 10.1 3 Oeste 8 Sudoeste 0 -- -- 89
2018-11-20 03:00:00 10.3 4 Noroeste 9 Norte 0 -- -- 87